Time;durP1;ratioP1;P1;durP2;ratioP2;P2;SDS_P1;SDS_P2;PMS_P1;PMS_P2;Temp;Humidity;BMP_temperature;BMP_pressure;BME280_temperature;BME280_humidity;BME280_pressure;Samples;Min_cycle;Max_cycle;Signal;HPM_P1;HPM_P2
2021/09/17 00:00:55;;;;;;;26.23;20.52;;;;;;;16.80;78.12;101685.28;5094527;28;20082;-63
2021/09/17 00:03:25;;;;;;;22.90;18.42;;;;;;;16.79;78.37;101690.00;5094396;28;20537;-62
2021/09/17 00:05:53;;;;;;;26.25;20.98;;;;;;;16.80;78.58;101685.28;5095126;28;20108;-61
2021/09/17 00:08:22;;;;;;;26.83;21.35;;;;;;;16.81;78.40;101684.16;5093745;28;20124;-62
2021/09/17 00:10:49;;;;;;;32.00;20.85;;;;;;;16.82;78.37;101688.59;5103536;28;20122;-62
2021/09/17 00:13:17;;;;;;;25.67;19.85;;;;;;;16.82;78.34;101688.59;5098511;28;20503;-63
2021/09/17 00:15:45;;;;;;;24.73;18.55;;;;;;;16.81;78.17;101679.50;5094165;28;20074;-61
2021/09/17 00:18:13;;;;;;;27.00;21.33;;;;;;;16.81;78.31;101690.53;5095438;28;20804;-60
2021/09/17 00:20:41;;;;;;;28.10;22.15;;;;;;;16.79;78.59;101683.66;5092467;28;20535;-60
2021/09/17 00:23:10;;;;;;;26.17;21.00;;;;;;;16.75;78.34;101679.81;5093843;28;20406;-62
2021/09/17 00:25:37;;;;;;;24.77;19.50;;;;;;;16.72;78.73;101683.16;5093622;28;20431;-62
2021/09/17 00:28:05;;;;;;;25.85;19.05;;;;;;;16.70;79.10;101686.19;5101955;28;20051;-62
2021/09/17 00:30:33;;;;;;;23.95;18.80;;;;;;;16.71;78.91;101681.50;5096060;28;20114;-62
2021/09/17 00:33:00;;;;;;;22.48;17.02;;;;;;;16.72;79.14;101677.66;5093773;28;20107;-60
2021/09/17 00:35:28;;;;;;;26.70;18.98;;;;;;;16.76;79.31;101667.69;5093025;28;20051;-62
2021/09/17 00:37:56;;;;;;;21.77;18.58;;;;;;;16.76;79.28;101671.28;5095660;28;20120;-62
2021/09/17 00:40:25;;;;;;;26.30;20.70;;;;;;;16.79;79.33;101672.66;5104119;28;20076;-61
2021/09/17 00:42:53;;;;;;;28.50;23.33;;;;;;;16.79;79.13;101667.16;5104071;28;20036;-62
2021/09/17 00:45:21;;;;;;;24.80;19.83;;;;;;;16.78;79.12;101663.56;5093693;28;20071;-62
2021/09/17 00:47:49;;;;;;;28.20;21.10;;;;;;;16.78;78.84;101659.97;5093490;28;20388;-60
2021/09/17 00:50:20;;;;;;;26.77;20.58;;;;;;;16.77;79.18;101648.13;5098375;28;20068;-62
2021/09/17 00:52:49;;;;;;;27.15;20.80;;;;;;;16.77;79.07;101658.34;5093111;28;20458;-61
2021/09/17 00:55:17;;;;;;;29.40;21.80;;;;;;;16.77;79.00;101661.09;5093341;28;20083;-61
2021/09/17 00:57:45;;;;;;;30.20;22.08;;;;;;;16.75;79.29;101661.34;5091507;28;20052;-61
2021/09/17 01:00:14;;;;;;;26.17;20.58;;;;;;;16.74;79.00;101661.63;5094795;28;20055;-62
2021/09/17 01:02:44;;;;;;;19.27;15.23;;;;;;;16.73;78.71;101658.06;5092930;28;20572;-62
2021/09/17 01:05:13;;;;;;;27.70;20.67;;;;;;;16.74;79.01;101661.63;5092844;28;20075;-62
2021/09/17 01:07:42;;;;;;;26.92;20.30;;;;;;;16.73;78.80;101660.81;5093504;28;20068;-62
2021/09/17 01:10:11;;;;;;;23.77;18.85;;;;;;;16.73;79.26;101662.75;5098819;28;20067;-62
2021/09/17 01:12:39;;;;;;;23.20;18.10;;;;;;;16.72;79.00;101663.88;5103070;28;20040;-62
2021/09/17 01:15:08;;;;;;;24.05;19.25;;;;;;;16.70;79.12;101652.34;5092842;28;20127;-62
2021/09/17 01:17:39;;;;;;;29.17;20.08;;;;;;;16.70;79.33;101661.41;5092682;28;20075;-60
2021/09/17 01:20:10;;;;;;;24.55;19.30;;;;;;;16.68;79.22;101666.38;5093015;28;20044;-62
2021/09/17 01:22:39;;;;;;;26.40;19.02;;;;;;;16.66;79.20;101652.09;5091700;28;20044;-62
2021/09/17 01:25:09;;;;;;;23.45;17.50;;;;;;;16.67;79.12;101652.91;5092530;28;20051;-61
2021/09/17 01:27:37;;;;;;;23.52;17.70;;;;;;;16.68;79.02;101649.06;5099221;28;20067;-61
2021/09/17 01:30:06;;;;;;;28.50;21.42;;;;;;;16.67;78.90;101652.91;5108633;28;20127;-62
2021/09/17 01:32:34;;;;;;;26.55;20.55;;;;;;;16.63;78.68;101652.66;5109236;28;20097;-62
2021/09/17 01:35:04;;;;;;;26.52;20.48;;;;;;;16.60;78.66;101656.81;5098443;28;20047;-62
2021/09/17 01:37:31;;;;;;;24.85;18.92;;;;;;;16.57;79.15;101654.66;5105967;28;20091;-61
2021/09/17 01:39:59;;;;;;;24.58;19.20;;;;;;;16.56;78.90;101653.00;5091860;28;20123;-62
2021/09/17 01:42:27;;;;;;;22.85;17.45;;;;;;;16.56;79.29;101642.00;5106687;28;20032;-61
2021/09/17 01:44:55;;;;;;;25.83;19.55;;;;;;;16.56;79.30;101638.41;5111572;28;20558;-62
2021/09/17 01:47:22;;;;;;;29.88;21.48;;;;;;;16.56;79.12;101639.22;5101722;28;20044;-61
2021/09/17 01:49:50;;;;;;;26.75;21.02;;;;;;;16.55;79.35;101634.84;5096236;28;20092;-62
2021/09/17 01:52:18;;;;;;;26.80;18.92;;;;;;;16.55;79.23;101634.84;5092507;28;20048;-61
2021/09/17 01:54:46;;;;;;;26.08;19.55;;;;;;;16.54;78.93;101633.19;5090804;28;20407;-62
2021/09/17 01:57:14;;;;;;;25.10;20.15;;;;;;;16.54;79.03;101630.44;5092386;28;20032;-62
2021/09/17 01:59:41;;;;;;;27.52;21.67;;;;;;;16.54;78.98;101627.69;5092464;28;20562;-62
2021/09/17 02:02:09;;;;;;;29.00;21.77;;;;;;;16.54;78.58;101632.38;5097040;28;20075;-61
2021/09/17 02:04:37;;;;;;;29.63;22.02;;;;;;;16.53;79.02;101628.81;5100410;28;20048;-62
2021/09/17 02:07:05;;;;;;;22.73;19.02;;;;;;;16.53;78.70;101620.56;5091741;28;20623;-62
2021/09/17 02:09:33;;;;;;;25.58;19.70;;;;;;;16.53;78.90;101626.06;5091840;28;20048;-61
2021/09/17 02:12:02;;;;;;;27.60;20.88;;;;;;;16.53;78.57;101617.81;5103435;28;20058;-62
2021/09/17 02:14:29;;;;;;;23.52;17.85;;;;;;;16.51;78.59;101625.53;5102967;28;20064;-62
2021/09/17 02:16:57;;;;;;;25.98;19.17;;;;;;;16.49;78.63;101624.19;5091600;28;20459;-62
2021/09/17 02:19:25;;;;;;;25.20;20.23;;;;;;;16.48;78.43;101625.28;5091774;28;20052;-62
2021/09/17 02:21:55;;;;;;;24.92;20.48;;;;;;;16.47;78.40;101623.63;5099468;28;20039;-62
2021/09/17 02:24:24;;;;;;;26.02;20.48;;;;;;;16.44;78.51;101616.78;5091692;28;20590;-62
2021/09/17 02:26:52;;;;;;;25.17;20.25;;;;;;;16.42;78.47;101608.00;5091939;28;20044;-62
2021/09/17 02:29:20;;;;;;;25.60;19.52;;;;;;;16.42;78.78;101613.50;5109787;28;20059;-62
2021/09/17 02:31:48;;;;;;;26.50;20.98;;;;;;;16.42;78.63;101612.69;5098830;28;20082;-62
2021/09/17 02:34:15;;;;;;;25.00;19.40;;;;;;;16.42;78.88;101608.00;5091858;28;20063;-61
2021/09/17 02:36:43;;;;;;;24.33;19.50;;;;;;;16.42;78.83;101608.00;5100504;28;20079;-58
2021/09/17 02:39:13;;;;;;;25.70;19.42;;;;;;;16.42;78.84;101605.25;5096534;28;20044;-62
2021/09/17 02:41:42;;;;;;;25.30;20.52;;;;;;;16.42;78.71;101605.25;5100603;28;20043;-62
2021/09/17 02:44:10;;;;;;;22.90;17.75;;;;;;;16.43;78.62;101604.16;5114483;28;20101;-59
2021/09/17 02:46:38;;;;;;;22.10;17.17;;;;;;;16.45;78.66;101592.84;5092561;28;20044;-60
2021/09/17 02:49:06;;;;;;;23.27;18.00;;;;;;;16.46;78.42;101602.75;5090459;28;20044;-61
2021/09/17 02:51:34;;;;;;;20.75;16.60;;;;;;;16.47;78.52;101596.13;5100935;28;20075;-60
2021/09/17 02:54:02;;;;;;;23.00;17.17;;;;;;;16.50;78.83;101592.78;5091506;28;20044;-61
2021/09/17 02:56:30;;;;;;;19.23;16.20;;;;;;;16.50;78.70;101585.38;5091325;28;20062;-60
2021/09/17 02:58:58;;;;;;;23.23;18.95;;;;;;;16.52;78.46;101585.06;5093572;28;20071;-62
2021/09/17 03:01:25;;;;;;;22.13;15.43;;;;;;;16.53;78.59;101586.72;5100581;28;20075;-61
2021/09/17 03:03:53;;;;;;;19.33;15.35;;;;;;;16.54;78.49;101578.16;5095751;28;20044;-62
2021/09/17 03:06:22;;;;;;;19.00;14.55;;;;;;;16.56;78.37;101581.47;5095761;28;20555;-61
2021/09/17 03:08:50;;;;;;;17.33;13.38;;;;;;;16.58;78.61;101584.75;5096397;28;20120;-60
2021/09/17 03:11:18;;;;;;;18.88;14.70;;;;;;;16.59;78.43;101569.06;5110135;28;20078;-61
2021/09/17 03:13:46;;;;;;;17.63;13.07;;;;;;;16.60;78.47;101577.03;5096376;28;20394;-61
2021/09/17 03:16:13;;;;;;;19.17;14.02;;;;;;;16.60;78.68;101577.03;5106744;28;20067;-61
2021/09/17 03:18:42;;;;;;;17.77;13.23;;;;;;;16.61;78.42;101578.66;5096905;28;20032;-61
2021/09/17 03:21:09;;;;;;;21.83;17.17;;;;;;;16.59;78.27;101569.88;5102434;28;20536;-61
2021/09/17 03:23:37;;;;;;;18.23;14.73;;;;;;;16.56;78.21;101573.22;5098120;28;20078;-61
2021/09/17 03:26:05;;;;;;;21.08;15.02;;;;;;;16.55;78.73;101566.06;5103148;28;20115;-61
2021/09/17 03:28:33;;;;;;;20.63;14.43;;;;;;;16.55;78.42;101565.25;5099333;28;20071;-61
2021/09/17 03:31:01;;;;;;;20.30;15.57;;;;;;;16.56;78.45;101566.88;5100490;28;20036;-61
2021/09/17 03:33:28;;;;;;;22.30;16.48;;;;;;;16.55;78.45;101566.06;5095278;28;20052;-61
2021/09/17 03:35:56;;;;;;;25.40;16.98;;;;;;;16.55;78.49;101562.50;5097226;28;20050;-61
2021/09/17 03:38:24;;;;;;;22.10;16.75;;;;;;;16.55;78.65;101563.31;5106313;28;20088;-60
2021/09/17 03:40:52;;;;;;;24.08;16.38;;;;;;;16.54;78.66;101567.16;5100603;28;20063;-61
2021/09/17 03:43:20;;;;;;;19.08;15.18;;;;;;;16.56;78.75;101564.94;5094576;28;20071;-61
2021/09/17 03:45:47;;;;;;;23.00;15.82;;;;;;;16.55;78.51;101560.56;5094471;28;20083;-61
2021/09/17 03:48:15;;;;;;;20.48;15.95;;;;;;;16.57;78.40;101565.75;5094697;28;20044;-60
2021/09/17 03:50:43;;;;;;;19.73;15.27;;;;;;;16.57;78.56;101560.25;5095294;28;20047;-61
2021/09/17 03:53:11;;;;;;;22.15;16.88;;;;;;;16.55;78.53;101552.31;5100144;28;20040;-61
2021/09/17 03:55:39;;;;;;;21.23;16.35;;;;;;;16.55;78.82;101552.31;5094449;28;20052;-61
2021/09/17 03:58:07;;;;;;;21.40;17.02;;;;;;;16.52;79.00;101547.38;5094237;28;20077;-61
2021/09/17 04:00:36;;;;;;;22.63;17.15;;;;;;;16.50;78.92;101549.63;5099440;28;20113;-61
2021/09/17 04:03:04;;;;;;;24.10;18.05;;;;;;;16.47;79.13;101550.19;5098664;28;20079;-61
2021/09/17 04:05:33;;;;;;;21.63;16.67;;;;;;;16.45;79.47;101549.69;5094254;28;20048;-61
2021/09/17 04:08:02;;;;;;;20.75;15.50;;;;;;;16.45;79.69;101557.09;5093888;28;20048;-61
2021/09/17 04:10:30;;;;;;;21.73;15.93;;;;;;;16.45;79.84;101557.94;5092813;28;20048;-61
2021/09/17 04:12:57;;;;;;;21.10;16.45;;;;;;;16.44;79.81;101549.97;5101064;27;20052;-61
2021/09/17 04:15:25;;;;;;;21.85;17.13;;;;;;;16.43;79.71;101557.41;5092418;28;20032;-61
2021/09/17 04:17:53;;;;;;;23.30;17.33;;;;;;;16.43;80.20;101553.78;5094031;28;20048;-61
2021/09/17 04:20:21;;;;;;;23.13;16.25;;;;;;;16.43;80.08;101551.88;5093795;28;20044;-63
2021/09/17 04:22:49;;;;;;;22.42;17.52;;;;;;;16.43;79.94;101551.88;5098291;28;20075;-61
2021/09/17 04:25:17;;;;;;;20.15;16.45;;;;;;;16.44;80.11;101549.97;5092543;28;20048;-62
2021/09/17 04:27:45;;;;;;;20.50;16.23;;;;;;;16.45;80.05;101546.09;5093991;28;20040;-60
2021/09/17 04:30:15;;;;;;;20.45;15.63;;;;;;;16.46;79.77;101545.81;5094676;28;20529;-62
2021/09/17 04:32:44;;;;;;;19.25;14.68;;;;;;;16.47;79.36;101547.44;5093716;28;20441;-62
2021/09/17 04:35:12;;;;;;;20.05;14.23;;;;;;;16.48;79.52;101545.53;5093752;28;20087;-62
2021/09/17 04:37:42;;;;;;;20.92;16.50;;;;;;;16.48;79.28;101543.59;5108326;28;20083;-61
2021/09/17 04:40:11;;;;;;;22.35;17.52;;;;;;;16.48;78.61;101540.84;5104453;28;20123;-62
2021/09/17 04:42:39;;;;;;;22.52;17.58;;;;;;;16.47;78.57;101541.94;5106167;28;20043;-63
2021/09/17 04:45:08;;;;;;;20.42;15.40;;;;;;;16.48;78.62;101540.84;5094276;28;20047;-63
2021/09/17 04:47:36;;;;;;;20.60;14.30;;;;;;;16.52;78.88;101541.06;5094513;28;20150;-62
2021/09/17 04:50:05;;;;;;;16.55;12.85;;;;;;;16.54;78.81;101541.59;5094813;28;20079;-61
2021/09/17 04:52:51;;;;;;;17.92;13.85;;;;;;;16.57;78.21;101544.59;5105714;28;20449;-61
2021/09/17 04:55:19;;;;;;;20.02;12.43;;;;;;;16.60;78.55;101538.50;5093596;28;20044;-62
2021/09/17 04:57:47;;;;;;;20.25;15.02;;;;;;;16.58;77.99;101535.22;5106770;28;20554;-60
2021/09/17 05:00:15;;;;;;;21.95;14.05;;;;;;;16.55;78.13;101546.81;4744320;28;10000549;-60
2021/09/17 05:02:43;;;;;;;23.33;17.35;;;;;;;16.52;77.95;101550.13;5096514;28;20490;-56
2021/09/17 05:05:11;;;;;;;23.02;16.27;;;;;;;16.48;78.01;101546.34;5073491;28;20051;-61
2021/09/17 05:07:39;;;;;;;16.92;12.25;;;;;;;16.49;78.35;101542.47;5092274;28;20080;-60
2021/09/17 05:10:21;;;;;;;18.40;14.15;;;;;;;16.52;78.54;101552.88;5108644;28;20040;-62
2021/09/17 05:12:49;;;;;;;19.00;14.27;;;;;;;16.52;78.03;101544.63;5095757;28;20087;-62
2021/09/17 05:15:17;;;;;;;17.60;12.68;;;;;;;16.55;77.96;101546.81;5091796;28;20099;-62
2021/09/17 05:17:45;;;;;;;18.05;13.55;;;;;;;16.58;77.92;101540.72;5091415;28;20074;-62
2021/09/17 05:20:14;;;;;;;17.30;12.15;;;;;;;16.60;77.89;101538.50;5091242;28;20120;-62
2021/09/17 05:22:42;;;;;;;20.23;14.63;;;;;;;16.56;77.70;101542.94;5100042;28;20097;-61
2021/09/17 05:25:10;;;;;;;21.50;16.42;;;;;;;16.53;77.51;101537.22;5090740;28;20093;-62
2021/09/17 05:27:39;;;;;;;18.08;13.70;;;;;;;16.52;77.97;101530.06;5090674;28;20383;-61
2021/09/17 05:30:07;;;;;;;18.85;13.65;;;;;;;16.51;77.91;101528.44;5091535;28;20072;-61
2021/09/17 05:32:35;;;;;;;20.13;16.38;;;;;;;16.48;78.20;101526.28;5096383;28;20036;-62
2021/09/17 05:35:06;;;;;;;23.95;18.85;;;;;;;16.43;78.26;101524.38;5091016;28;20097;-62
2021/09/17 05:37:33;;;;;;;24.33;18.42;;;;;;;16.39;78.96;101531.56;5104303;28;20039;-62
2021/09/17 05:40:05;;;;;;;22.95;16.52;;;;;;;16.36;78.53;101523.91;5104022;28;20113;-62
2021/09/17 05:42:33;;;;;;;26.27;19.70;;;;;;;16.35;78.64;101536.00;5091899;27;20048;-62
2021/09/17 05:45:02;;;;;;;25.65;19.98;;;;;;;16.31;78.70;101541.28;5092450;28;20050;-62
2021/09/17 05:47:31;;;;;;;24.75;20.40;;;;;;;16.28;78.67;101544.56;5106127;28;20379;-62
2021/09/17 05:49:59;;;;;;;25.38;19.50;;;;;;;16.26;78.62;101543.22;5092361;28;20047;-61
2021/09/17 05:52:27;;;;;;;25.88;19.60;;;;;;;16.25;78.82;101547.09;5092512;28;20445;-61
2021/09/17 05:54:55;;;;;;;25.27;20.30;;;;;;;16.25;78.50;101553.41;5091719;28;20044;-61
2021/09/17 05:57:23;;;;;;;25.77;20.58;;;;;;;16.27;78.82;101553.13;5092054;28;20046;-61
2021/09/17 05:59:51;;;;;;;25.45;19.85;;;;;;;16.28;78.80;101550.06;5091724;28;20134;-62
2021/09/17 06:02:18;;;;;;;23.88;19.20;;;;;;;16.28;78.62;101552.00;5092065;28;20451;-61
2021/09/17 06:04:47;;;;;;;27.13;20.92;;;;;;;16.28;78.83;101552.00;5091822;28;20067;-60
2021/09/17 06:07:14;;;;;;;26.23;20.23;;;;;;;16.25;78.77;101549.84;5091810;28;20040;-60
2021/09/17 06:09:43;;;;;;;27.25;20.33;;;;;;;16.21;79.03;101548.78;5091274;28;20109;-61
2021/09/17 06:12:10;;;;;;;25.08;20.10;;;;;;;16.21;79.26;101546.88;5092241;28;20448;-61
2021/09/17 06:14:38;;;;;;;27.02;20.05;;;;;;;16.22;78.97;101544.94;5092067;28;20135;-59
2021/09/17 06:17:06;;;;;;;25.88;19.23;;;;;;;16.22;78.88;101543.00;5091708;28;20044;-61
2021/09/17 06:19:34;;;;;;;22.63;18.67;;;;;;;16.24;78.90;101543.53;5091428;28;20459;-61
2021/09/17 06:22:01;;;;;;;26.92;19.42;;;;;;;16.27;78.97;101542.13;5091706;28;20466;-62
2021/09/17 06:24:29;;;;;;;21.25;16.08;;;;;;;16.30;78.48;101544.31;5091234;28;20144;-61
2021/09/17 06:26:57;;;;;;;24.35;18.95;;;;;;;16.30;78.70;101545.13;5091588;28;20109;-61
2021/09/17 06:29:25;;;;;;;26.77;19.98;;;;;;;16.33;78.35;101549.22;5091839;28;20044;-61
2021/09/17 06:31:52;;;;;;;22.00;17.27;;;;;;;16.35;78.81;101547.81;5093625;28;20044;-61
2021/09/17 06:34:20;;;;;;;23.23;18.35;;;;;;;16.38;78.44;101547.25;5095784;28;20043;-62
2021/09/17 06:36:48;;;;;;;26.02;17.98;;;;;;;16.41;78.60;101551.34;5106635;28;20055;-61
2021/09/17 06:39:17;;;;;;;26.02;19.75;;;;;;;16.43;78.18;101549.13;5095373;28;20562;-60
2021/09/17 06:41:45;;;;;;;22.58;16.55;;;;;;;16.44;77.78;101548.03;5094155;28;20044;-61
2021/09/17 06:44:13;;;;;;;27.13;19.88;;;;;;;16.46;77.38;101545.81;5102219;28;20074;-61
2021/09/17 06:46:40;;;;;;;28.45;21.45;;;;;;;16.47;77.08;101547.44;5091947;28;20052;-62
2021/09/17 06:49:09;;;;;;;23.23;15.68;;;;;;;16.49;77.03;101542.47;5091662;28;20063;-62
2021/09/17 06:51:36;;;;;;;24.63;16.75;;;;;;;16.51;77.03;101550.44;5104279;28;20039;-62
2021/09/17 06:54:04;;;;;;;25.80;19.27;;;;;;;16.51;76.94;101551.25;5098046;28;20044;-62
2021/09/17 06:56:32;;;;;;;26.75;20.27;;;;;;;16.51;76.81;101553.19;5094184;28;20938;-63
2021/09/17 06:59:00;;;;;;;28.40;22.73;;;;;;;16.50;77.20;101552.38;5101163;28;20039;-58
2021/09/17 07:01:28;;;;;;;29.17;23.45;;;;;;;16.51;76.99;101551.25;5089979;28;20042;-60
2021/09/17 07:03:56;;;;;;;32.25;22.25;;;;;;;16.50;77.02;101549.63;5108427;28;20040;-60
2021/09/17 07:06:24;;;;;;;25.50;19.67;;;;;;;16.53;77.15;101551.78;5108917;28;20055;-57
2021/09/17 07:08:53;;;;;;;29.63;22.52;;;;;;;16.51;77.50;101553.19;5105743;28;20044;-60
2021/09/17 07:11:23;;;;;;;29.52;23.63;;;;;;;16.51;77.66;101545.75;5105209;28;20063;-58
2021/09/17 07:13:51;;;;;;;28.90;21.90;;;;;;;16.51;77.62;101551.25;5101958;28;20460;-60
2021/09/17 07:16:19;;;;;;;25.30;19.15;;;;;;;16.53;77.30;101549.03;5093726;28;20048;-60
2021/09/17 07:18:46;;;;;;;28.77;21.55;;;;;;;16.53;77.34;101546.28;5098368;28;20070;-60
2021/09/17 07:21:14;;;;;;;29.27;21.45;;;;;;;16.53;77.61;101543.53;5103355;28;20082;-61
2021/09/17 07:23:42;;;;;;;30.83;22.48;;;;;;;16.54;77.59;101541.59;5099077;28;20044;-60
2021/09/17 07:26:10;;;;;;;25.67;20.20;;;;;;;16.55;77.39;101541.31;5100369;28;20047;-60
2021/09/17 07:28:38;;;;;;;28.85;21.20;;;;;;;16.58;77.96;101537.97;5102592;28;20044;-57
2021/09/17 07:31:06;;;;;;;27.90;19.10;;;;;;;16.59;77.92;101536.03;5098924;28;20040;-60
2021/09/17 07:33:33;;;;;;;22.23;13.15;;;;;;;16.66;78.19;101541.19;5104755;28;20119;-59
2021/09/17 07:36:01;;;;;;;22.45;17.13;;;;;;;16.66;78.17;101542.00;5107692;28;20040;-60
2021/09/17 07:38:29;;;;;;;22.10;17.45;;;;;;;16.65;78.20;101543.13;5101171;28;20056;-60
2021/09/17 07:40:57;;;;;;;28.02;21.65;;;;;;;16.65;78.11;101539.56;5090776;28;20491;-62
2021/09/17 07:43:25;;;;;;;28.90;21.42;;;;;;;16.65;77.82;101540.38;5095746;28;20490;-61
2021/09/17 07:45:52;;;;;;;28.25;19.73;;;;;;;16.65;78.73;101536.81;5099938;28;20048;-61
2021/09/17 07:48:21;;;;;;;28.42;21.52;;;;;;;16.67;78.32;101537.31;5093594;28;20059;-62
2021/09/17 07:50:48;;;;;;;24.40;16.52;;;;;;;16.70;78.63;101531.25;5093958;28;20509;-63
2021/09/17 07:53:16;;;;;;;26.60;19.77;;;;;;;16.71;78.66;101535.63;5105264;28;20048;-60
2021/09/17 07:55:44;;;;;;;28.35;19.13;;;;;;;16.71;78.49;101536.44;5111033;28;20043;-62
2021/09/17 07:58:13;;;;;;;22.10;16.05;;;;;;;16.72;78.64;101540.88;5107828;28;20097;-61
2021/09/17 08:00:41;;;;;;;31.38;21.42;;;;;;;16.72;78.61;101534.53;5096706;28;20505;-61
2021/09/17 08:03:09;;;;;;;24.33;17.33;;;;;;;16.74;79.01;101538.66;5098934;28;20129;-61
2021/09/17 08:05:37;;;;;;;27.45;21.27;;;;;;;16.76;79.04;101539.19;5100166;28;20383;-61
2021/09/17 08:08:05;;;;;;;17.63;12.85;;;;;;;16.80;79.01;101542.19;5106675;28;20055;-57
2021/09/17 08:10:33;;;;;;;23.58;17.17;;;;;;;16.85;78.84;101541.31;5097411;28;20056;-61
2021/09/17 08:13:01;;;;;;;26.73;21.10;;;;;;;16.87;79.09;101542.66;5101532;28;20043;-60
2021/09/17 08:15:29;;;;;;;22.73;14.48;;;;;;;16.87;79.25;101539.91;5094981;28;20124;-60
2021/09/17 08:17:56;;;;;;;20.02;13.80;;;;;;;17.00;79.31;101541.97;5097856;28;20036;-58
2021/09/17 08:20:25;;;;;;;21.05;15.68;;;;;;;17.06;78.80;101545.47;5096145;28;20044;-60
2021/09/17 08:22:53;;;;;;;20.55;13.88;;;;;;;17.10;78.72;101548.44;5105029;28;20043;-60
2021/09/17 08:25:21;;;;;;;27.40;19.63;;;;;;;17.13;78.77;101545.09;5098098;28;20036;-60
2021/09/17 08:27:48;;;;;;;28.60;21.08;;;;;;;17.08;78.95;101543.22;5104400;28;20060;-60
2021/09/17 08:30:16;;;;;;;18.20;14.55;;;;;;;17.08;78.70;101531.38;5096342;28;20073;-61
2021/09/17 08:33:00;;;;;;;29.55;18.55;;;;;;;17.06;79.12;101533.63;5095482;28;20101;-60
2021/09/17 08:35:49;;;;;;;29.60;22.73;;;;;;;17.01;79.33;101532.56;5097292;28;20036;-62
2021/09/17 08:38:38;;;;;;;24.90;18.60;;;;;;;17.11;79.33;101525.31;5102237;28;20055;-62
2021/09/17 08:41:13;;;;;;;23.05;18.35;;;;;;;17.13;79.58;101531.34;5100001;28;20043;-59
2021/09/17 08:43:43;;;;;;;19.77;14.90;;;;;;;17.16;79.20;101534.31;5093366;28;20036;-60
2021/09/17 08:46:14;;;;;;;24.95;17.58;;;;;;;17.17;79.69;101530.47;5097235;28;20051;-62
2021/09/17 08:48:43;;;;;;;17.17;11.90;;;;;;;17.21;79.76;101538.94;5095487;28;20089;-57
2021/09/17 08:51:11;;;;;;;31.10;22.27;;;;;;;17.16;79.61;101539.00;5098166;28;20040;-60
2021/09/17 08:53:39;;;;;;;19.58;13.15;;;;;;;17.19;79.80;101543.91;5094773;28;20044;-59
2021/09/17 08:56:08;;;;;;;17.00;10.68;;;;;;;17.22;79.76;101533.13;5093347;28;20032;-59
2021/09/17 08:58:35;;;;;;;25.35;18.52;;;;;;;17.24;79.83;101535.59;5102364;28;20058;-58
2021/09/17 09:01:03;;;;;;;18.73;13.68;;;;;;;17.25;79.81;101532.53;5102657;28;20093;-60
2021/09/17 09:03:33;;;;;;;23.55;17.58;;;;;;;17.33;79.72;101536.56;5101322;28;20383;-61
2021/09/17 09:06:11;;;;;;;32.90;25.33;;;;;;;17.36;79.28;101543.41;5100650;28;20059;-61
2021/09/17 09:08:40;;;;;;;23.63;17.63;;;;;;;17.29;79.47;101535.50;5092239;28;20043;-61
2021/09/17 09:11:21;;;;;;;24.23;18.65;;;;;;;17.24;79.76;101541.09;5098317;28;20114;-61
2021/09/17 09:14:04;;;;;;;29.20;21.23;;;;;;;17.28;79.51;101546.84;5094247;28;20118;-61
2021/09/17 09:16:36;;;;;;;25.52;19.02;;;;;;;17.31;79.46;101544.31;5092964;28;20105;-61
2021/09/17 09:19:30;;;;;;;27.73;20.23;;;;;;;17.34;79.64;101546.47;5105526;28;20036;-62
2021/09/17 09:22:04;;;;;;;37.95;26.30;;;;;;;17.45;79.39;101539.69;5096513;28;20036;-59
2021/09/17 09:24:39;;;;;;;30.80;21.35;;;;;;;17.41;79.02;101546.09;5101947;28;20443;-59
2021/09/17 09:27:19;;;;;;;16.55;10.45;;;;;;;17.44;79.66;101543.59;5098622;28;20436;-62
2021/09/17 09:29:52;;;;;;;32.05;24.00;;;;;;;17.43;78.75;101544.69;5101314;28;20072;-62
2021/09/17 09:32:27;;;;;;;43.67;32.53;;;;;;;17.40;79.01;101537.03;5092787;28;20032;-61
2021/09/17 09:35:04;;;;;;;29.08;22.13;;;;;;;17.41;79.06;101537.84;5100984;28;20040;-61
2021/09/17 09:37:32;;;;;;;;;;;;;;;17.46;78.87;101538.59;5109889;28;20355;-60
2021/09/17 09:40:03;;;;;;;35.83;28.52;;;;;;;17.51;79.37;101542.38;5094690;28;19955;-61
2021/09/17 09:42:38;;;;;;;33.17;24.27;;;;;;;17.59;79.09;101542.53;5097402;28;20048;-61
2021/09/17 09:45:14;;;;;;;41.90;32.67;;;;;;;17.54;78.90;101541.81;5092611;28;20040;-59
2021/09/17 09:47:43;;;;;;;44.78;33.45;;;;;;;17.54;78.50;101545.38;5091938;28;20065;-62
2021/09/17 09:50:21;;;;;;;26.02;18.70;;;;;;;17.60;78.33;101535.91;5099539;28;20096;-59
2021/09/17 09:52:56;;;;;;;32.53;24.60;;;;;;;17.68;78.31;101539.94;5097117;28;20036;-59
2021/09/17 09:55:24;;;;;;;42.53;31.98;;;;;;;17.72;78.40;101540.97;5092025;28;20036;-59
2021/09/17 09:57:55;;;;;;;43.15;31.15;;;;;;;17.77;78.14;101542.81;5091890;28;20075;-58
2021/09/17 10:00:24;;;;;;;45.78;32.67;;;;;;;17.78;77.27;101542.53;5092140;28;20055;-61
2021/09/17 10:02:52;;;;;;;41.60;32.67;;;;;;;17.79;77.46;101546.09;5101508;28;20070;-57
2021/09/17 10:05:26;;;;;;;42.45;31.10;;;;;;;17.80;77.64;101543.09;5096176;28;20431;-63
2021/09/17 10:07:54;;;;;;;28.52;23.08;;;;;;;17.87;77.75;101538.03;5096991;28;20048;-60
2021/09/17 10:10:21;;;;;;;40.40;29.85;;;;;;;17.95;77.05;101535.72;5100194;28;20040;-61
2021/09/17 10:12:49;;;;;;;40.08;30.17;;;;;;;17.99;76.58;101539.47;5096775;28;20097;-62
2021/09/17 10:15:18;;;;;;;29.48;22.15;;;;;;;18.03;76.63;101532.25;5090451;28;20040;-61
2021/09/17 10:17:53;;;;;;;42.63;30.75;;;;;;;18.08;77.14;101532.16;5101022;28;20060;-61
2021/09/17 10:20:21;;;;;;;34.83;25.92;;;;;;;18.12;76.59;101533.22;5090281;28;20056;-61
2021/09/17 10:22:50;;;;;;;35.80;27.88;;;;;;;18.14;76.01;101528.22;5099754;28;20043;-61
2021/09/17 10:25:24;;;;;;;37.20;28.52;;;;;;;18.17;75.99;101532.31;5097272;28;20073;-61
2021/09/17 10:28:04;;;;;;;36.00;27.38;;;;;;;18.18;76.67;101531.97;5091861;28;20052;-62
2021/09/17 10:30:36;;;;;;;38.72;28.20;;;;;;;18.23;76.70;101526.41;5103689;28;20052;-61
2021/09/17 10:33:04;;;;;;;58.15;40.15;;;;;;;18.25;76.20;101526.91;5092085;28;20123;-61
2021/09/17 10:35:45;;;;;;;78.70;54.50;;;;;;;18.28;76.45;101522.75;5099387;28;20043;-61
2021/09/17 10:38:16;;;;;;;147.32;99.35;;;;;;;18.39;76.28;101523.34;5091336;28;20075;-61
2021/09/17 10:41:02;;;;;;;67.82;50.28;;;;;;;18.40;75.39;101528.59;5091675;28;20082;-61
2021/09/17 10:43:58;;;;;;;45.63;34.72;;;;;;;18.39;74.23;101529.69;5098666;28;20453;-61
2021/09/17 10:46:32;;;;;;;36.20;25.15;;;;;;;18.33;73.53;101527.31;5096980;28;20093;-60
2021/09/17 10:49:01;;;;;;;35.83;25.08;;;;;;;18.27;72.94;101526.59;5098528;28;20044;-62
2021/09/17 10:51:36;;;;;;;37.42;26.48;;;;;;;18.26;72.89;101528.56;5100988;28;20398;-62
2021/09/17 10:54:19;;;;;;;37.90;26.52;;;;;;;18.28;73.45;101523.56;5091588;28;20136;-61
2021/09/17 10:57:01;;;;;;;37.05;26.17;;;;;;;18.31;73.85;101519.38;5104188;28;20093;-59
2021/09/17 10:59:43;;;;;;;40.47;28.67;;;;;;;18.31;74.09;101522.94;5106410;28;20044;-61
2021/09/17 11:02:11;;;;;;;37.30;27.10;;;;;;;18.30;73.86;101524.06;5105193;28;20092;-59
2021/09/17 11:04:43;;;;;;;40.20;28.92;;;;;;;18.30;74.64;101521.31;5106975;28;20063;-61
2021/09/17 11:07:34;;;;;;;39.28;29.88;;;;;;;18.34;74.58;101526.22;5096735;28;20040;-60
2021/09/17 11:10:04;;;;;;;43.13;31.23;;;;;;;18.36;74.16;101527.56;5028520;28;20049;-59
2021/09/17 11:12:35;;;;;;;52.38;37.05;;;;;;;18.43;73.66;101516.94;5027591;28;20053;-60
2021/09/17 11:15:13;;;;;;;45.65;29.33;;;;;;;18.42;73.09;101517.22;5027837;28;20588;-60
2021/09/17 11:17:55;;;;;;;41.92;31.05;;;;;;;18.43;72.86;101516.13;5027841;28;20052;-59
2021/09/17 11:20:28;;;;;;;44.47;30.10;;;;;;;18.43;72.77;101516.94;5030665;28;20060;-62